createdAt,value
2018-11-22T00:01:39.100Z,52.83
2018-11-22T00:04:10.880Z,53.83
2018-11-22T00:06:42.217Z,51.93
2018-11-22T00:09:14.724Z,52.13
2018-11-22T00:11:47.448Z,52.00
2018-11-22T00:14:18.880Z,52.87
2018-11-22T00:16:55.671Z,52.43
2018-11-22T00:19:26.068Z,53.80
2018-11-22T00:21:54.660Z,52.40
2018-11-22T00:24:22.860Z,52.93
2018-11-22T00:26:51.041Z,53.67
2018-11-22T00:29:22.860Z,53.53
2018-11-22T00:31:50.992Z,52.83
2018-11-22T00:34:21.014Z,53.70
2018-11-22T00:36:49.164Z,50.80
2018-11-22T00:39:28.016Z,51.90
2018-11-22T00:42:00.900Z,50.87
2018-11-22T00:44:36.672Z,53.73
2018-11-22T00:47:04.861Z,53.30
2018-11-22T00:49:32.989Z,50.20
2018-11-22T00:52:04.249Z,54.23
2018-11-22T00:54:32.353Z,51.17
2018-11-22T00:57:00.500Z,50.30
2018-11-22T00:59:37.725Z,49.13
2018-11-22T01:02:06.021Z,49.20
2018-11-22T01:04:39.189Z,48.43
2018-11-22T01:07:07.696Z,50.13
2018-11-22T01:09:50.185Z,49.87
2018-11-22T01:12:18.949Z,49.17
2018-11-22T01:14:49.433Z,50.37
2018-11-22T01:17:20.649Z,52.37
2018-11-22T01:19:49.133Z,51.83
2018-11-22T01:22:23.585Z,48.23
2018-11-22T01:24:51.953Z,50.97
2018-11-22T01:27:20.841Z,49.20
2018-11-22T01:29:59.473Z,52.10
2018-11-22T01:32:28.017Z,48.23
2018-11-22T01:34:56.388Z,53.80
2018-11-22T01:37:25.017Z,48.53
2018-11-22T01:40:02.798Z,51.50
2018-11-22T01:42:35.926Z,51.67
2018-11-22T01:45:04.696Z,48.00
2018-11-22T01:47:33.082Z,47.70
2018-11-22T01:50:11.190Z,47.53
2018-11-22T01:52:40.276Z,43.50
2018-11-22T01:55:09.814Z,49.37
2018-11-22T01:57:38.409Z,45.50
2018-11-22T02:00:14.308Z,49.97
2018-11-22T02:02:45.306Z,46.53
2018-11-22T02:05:20.573Z,47.80
2018-11-22T02:07:52.414Z,47.53
2018-11-22T02:10:21.942Z,44.43
2018-11-22T02:12:50.462Z,42.93
2018-11-22T02:15:20.661Z,46.67
2018-11-22T02:17:49.225Z,40.37
2018-11-22T02:20:18.842Z,43.40
2018-11-22T02:22:47.586Z,47.30
2018-11-22T02:25:23.429Z,42.47
2018-11-22T02:27:51.846Z,41.97
2018-11-22T02:30:24.865Z,43.53
2018-11-22T02:32:54.810Z,43.10
2018-11-22T02:35:32.070Z,43.53
2018-11-22T02:38:03.764Z,43.50
2018-11-22T02:40:32.582Z,42.20
2018-11-22T02:43:01.098Z,45.67
2018-11-22T02:45:32.846Z,41.50
2018-11-22T02:48:01.252Z,42.77
2018-11-22T02:50:40.523Z,41.97
2018-11-22T02:53:39.633Z,46.30
2018-11-22T02:56:08.106Z,41.10
2018-11-22T02:58:48.402Z,44.17
2018-11-22T03:01:26.585Z,43.03
2018-11-22T03:03:53.775Z,44.87
2018-11-22T03:06:25.679Z,43.47
2018-11-22T03:08:53.911Z,42.37
2018-11-22T03:11:31.179Z,47.30
2018-11-22T03:14:03.982Z,45.33
2018-11-22T03:16:35.439Z,44.37
2018-11-22T03:19:03.881Z,40.47
2018-11-22T03:21:41.077Z,42.00
2018-11-22T03:24:12.566Z,42.43
2018-11-22T03:26:41.406Z,41.50
2018-11-22T03:29:12.239Z,43.00
2018-11-22T03:31:47.961Z,42.13
2018-11-22T03:34:29.308Z,42.77
2018-11-22T03:36:58.543Z,44.97
2018-11-22T03:39:34.355Z,41.97
2018-11-22T03:42:14.571Z,43.13
2018-11-22T03:44:54.416Z,45.30
2018-11-22T03:47:34.779Z,43.03
2018-11-22T03:50:13.920Z,43.93
2018-11-22T03:52:47.727Z,46.90
2018-11-22T03:55:17.407Z,45.07
2018-11-22T03:57:48.939Z,44.70
2018-11-22T04:00:26.615Z,42.43
2018-11-22T04:02:55.200Z,47.60
2018-11-22T04:05:25.120Z,41.70
2018-11-22T04:07:53.357Z,45.77
2018-11-22T04:10:32.084Z,49.50
2018-11-22T04:13:00.317Z,47.50
2018-11-22T04:15:28.588Z,41.80
2018-11-22T04:17:57.058Z,44.53
2018-11-22T04:20:27.535Z,43.60
2018-11-22T04:22:55.711Z,43.73
2018-11-22T04:25:31.299Z,42.60
2018-11-22T04:28:02.464Z,40.67
2018-11-22T04:30:32.244Z,45.40
2018-11-22T04:33:00.572Z,44.13
2018-11-22T04:35:29.649Z,41.17
2018-11-22T04:38:01.175Z,41.90
2018-11-22T04:40:31.848Z,43.20
2018-11-22T04:42:59.447Z,42.57
2018-11-22T04:45:32.071Z,42.93
2018-11-22T04:48:01.252Z,44.67
2018-11-22T04:50:34.029Z,42.97
2018-11-22T04:53:02.824Z,42.87
2018-11-22T04:55:31.424Z,43.27
2018-11-22T04:57:59.725Z,44.63
2018-11-22T05:00:31.221Z,47.70
2018-11-22T05:02:59.389Z,44.23
2018-11-22T05:05:31.109Z,42.87
2018-11-22T05:08:07.633Z,42.00
2018-11-22T05:10:36.054Z,44.00
2018-11-22T05:13:04.337Z,44.23
2018-11-22T05:15:35.399Z,43.73
2018-11-22T05:18:09.533Z,40.47
2018-11-22T05:20:37.749Z,43.43
2018-11-22T05:23:05.884Z,45.30
2018-11-22T05:25:34.603Z,40.07
2018-11-22T05:28:02.925Z,43.67
2018-11-22T05:30:37.161Z,44.63
2018-11-22T05:33:05.813Z,46.87
2018-11-22T05:35:34.521Z,43.60
2018-11-22T05:38:05.662Z,45.37
2018-11-22T05:40:41.898Z,45.70
2018-11-22T05:43:08.934Z,47.87
2018-11-22T05:45:37.337Z,45.37
2018-11-22T05:48:06.065Z,46.17
2018-11-22T05:50:34.638Z,48.83
2018-11-22T05:53:03.725Z,45.63
2018-11-22T05:55:32.686Z,46.13
2018-11-22T05:58:03.249Z,49.83
2018-11-22T06:00:41.961Z,44.07
2018-11-22T06:03:17.689Z,47.70
2018-11-22T06:05:55.696Z,47.97
2018-11-22T06:08:24.382Z,44.37
2018-11-22T06:10:55.309Z,46.13
2018-11-22T06:13:28.157Z,47.10
2018-11-22T06:15:56.218Z,44.57
2018-11-22T06:18:24.434Z,48.73
2018-11-22T06:20:52.793Z,44.90
2018-11-22T06:23:20.990Z,45.67
2018-11-22T06:25:58.993Z,46.63
2018-11-22T06:28:38.898Z,47.30
2018-11-22T06:31:22.686Z,45.87
2018-11-22T06:34:09.050Z,48.40
2018-11-22T06:36:38.662Z,43.17
2018-11-22T06:39:22.238Z,45.33
2018-11-22T06:42:08.772Z,46.97
2018-11-22T06:44:48.679Z,46.23
2018-11-22T06:47:21.646Z,41.53
2018-11-22T06:49:55.701Z,45.23
2018-11-22T06:52:27.318Z,46.30
2018-11-22T06:54:58.274Z,45.83
2018-11-22T06:57:29.686Z,49.77
2018-11-22T07:00:02.654Z,44.60
2018-11-22T07:02:29.490Z,45.40
2018-11-22T07:05:17.498Z,45.53
2018-11-22T07:07:49.418Z,45.80
2018-11-22T07:10:31.073Z,45.03
2018-11-22T07:13:01.638Z,44.73
2018-11-22T07:16:01.618Z,44.67
2018-11-22T07:18:38.725Z,46.97
2018-11-22T07:21:06.127Z,43.20
2018-11-22T07:26:28.322Z,47.90
2018-11-22T07:28:57.166Z,45.83
2018-11-22T07:31:25.548Z,47.37
2018-11-22T07:33:59.695Z,46.03
2018-11-22T12:15:56.387Z,31.53
2018-11-22T12:21:04.764Z,29.80
2018-11-22T12:23:33.396Z,30.67
2018-11-22T12:26:12.920Z,33.70
2018-11-22T12:28:46.480Z,28.00
2018-11-22T12:31:23.197Z,30.43
2018-11-22T12:33:58.013Z,27.40
2018-11-22T12:36:33.693Z,27.50
2018-11-22T12:39:12.085Z,37.57
2018-11-22T12:41:44.681Z,32.87
2018-11-22T12:44:13.253Z,29.93
2018-11-22T12:46:44.937Z,28.70
2018-11-22T12:49:13.248Z,27.70
2018-11-22T12:51:44.369Z,29.17
2018-11-22T12:54:13.325Z,31.07
2018-11-22T12:56:41.409Z,26.33
2018-11-22T12:59:09.561Z,26.87
2018-11-22T13:01:39.405Z,26.80
2018-11-22T13:04:08.089Z,25.07
2018-11-22T13:06:36.210Z,25.43
2018-11-22T13:09:06.385Z,24.80
2018-11-22T13:11:35.780Z,25.27
2018-11-22T13:14:03.865Z,27.47
2018-11-22T13:16:34.930Z,24.07
2018-11-22T13:19:03.114Z,30.27
2018-11-22T13:21:32.009Z,31.10
2018-11-22T13:24:00.121Z,25.23
2018-11-22T13:26:28.565Z,30.73
2018-11-22T13:28:56.689Z,26.57
2018-11-22T13:31:24.810Z,26.73
2018-11-22T13:33:53.406Z,26.07
2018-11-22T13:36:21.668Z,25.07
2018-11-22T13:38:49.950Z,24.30
2018-11-22T13:41:19.181Z,25.43
2018-11-22T13:43:47.350Z,23.30
2018-11-22T13:46:15.435Z,26.00
2018-11-22T13:48:43.478Z,22.77
2018-11-22T13:51:12.690Z,25.70
2018-11-22T13:53:43.002Z,23.53
2018-11-22T13:56:11.142Z,23.83
2018-11-22T13:58:45.158Z,21.90
2018-11-22T14:01:19.565Z,20.10
2018-11-22T14:03:47.617Z,28.93
2018-11-22T14:06:15.880Z,23.10
2018-11-22T14:08:44.071Z,22.00
2018-11-22T14:11:14.052Z,25.57
2018-11-22T14:13:40.313Z,24.20
2018-11-22T14:16:08.345Z,23.00
2018-11-22T14:18:36.439Z,21.03
2018-11-22T14:21:04.570Z,25.27
2018-11-22T14:23:32.803Z,22.37
2018-11-22T14:26:00.838Z,23.77
2018-11-22T14:28:28.958Z,25.07
2018-11-22T14:30:56.967Z,21.90
2018-11-22T14:33:25.178Z,19.50
2018-11-22T14:35:53.307Z,20.80
2018-11-22T14:38:21.506Z,20.37
2018-11-22T14:40:49.666Z,19.80
2018-11-22T14:43:17.860Z,21.23
2018-11-22T14:45:46.007Z,21.70
2018-11-22T14:48:14.236Z,21.70
2018-11-22T14:50:44.433Z,22.23
2018-11-22T14:53:16.579Z,20.23
2018-11-22T14:55:44.743Z,21.30
2018-11-22T14:58:15.564Z,20.63
2018-11-22T15:00:44.323Z,20.30
2018-11-22T15:03:12.446Z,18.70
2018-11-22T15:05:41.159Z,22.50
2018-11-22T15:08:10.151Z,22.50
2018-11-22T15:10:40.707Z,19.27
2018-11-22T15:13:15.144Z,21.87
2018-11-22T15:15:50.795Z,22.30
2018-11-22T15:40:40.768Z,20.03
2018-11-22T15:43:17.464Z,19.10
2018-11-22T15:52:36.564Z,23.00
2018-11-22T15:55:21.395Z,24.47
2018-11-22T16:00:42.704Z,20.00
2018-11-22T16:07:14.688Z,23.10
2018-11-22T16:51:26.295Z,21.80
2018-11-22T16:53:54.332Z,20.63
2018-11-22T17:30:44.184Z,21.43
2018-11-22T17:33:31.290Z,24.23
2018-11-22T17:36:03.492Z,24.00
2018-11-22T17:38:37.570Z,26.63
2018-11-22T17:47:38.476Z,21.90
2018-11-22T17:50:09.328Z,20.90
2018-11-22T17:59:07.132Z,26.33
2018-11-22T18:01:36.944Z,25.90
2018-11-22T18:04:13.648Z,23.83
2018-11-22T18:09:23.676Z,24.63
2018-11-22T18:14:46.287Z,27.60
2018-11-22T18:17:20.788Z,26.80
2018-11-22T18:22:39.516Z,23.53
2018-11-22T18:28:08.752Z,24.20
2018-11-22T18:30:43.485Z,23.47
2018-11-22T18:33:12.900Z,26.80
2018-11-22T18:35:49.489Z,29.00
2018-11-22T18:38:29.603Z,28.87
2018-11-22T18:40:58.393Z,27.23
2018-11-22T18:43:45.385Z,30.10
2018-11-22T18:46:36.117Z,26.90
2018-11-22T19:01:33.357Z,24.90
2018-11-22T19:06:18.657Z,26.83
2018-11-22T19:09:03.157Z,26.43
2018-11-22T19:14:57.670Z,23.93
2018-11-22T19:17:29.529Z,24.53
2018-11-22T19:20:08.947Z,24.93
2018-11-22T19:22:39.709Z,23.10
2018-11-22T19:25:11.041Z,27.70
2018-11-22T19:27:42.617Z,27.63
2018-11-22T19:30:22.972Z,26.60
2018-11-22T19:33:07.435Z,24.40
2018-11-22T19:35:43.645Z,23.73
2018-11-22T19:38:17.077Z,24.73
2018-11-22T19:40:54.653Z,25.53
2018-11-22T19:43:51.229Z,22.23
2018-11-22T19:46:24.217Z,23.37
2018-11-22T19:48:52.786Z,25.67
2018-11-22T19:51:21.798Z,23.97
2018-11-22T19:53:50.801Z,22.63
2018-11-22T19:56:24.550Z,24.57
2018-11-22T19:58:53.019Z,26.10
2018-11-22T20:01:21.302Z,25.07
2018-11-22T20:03:49.527Z,25.77
2018-11-22T20:06:17.770Z,30.53
2018-11-22T20:08:45.994Z,27.50
2018-11-22T20:11:15.632Z,23.83
2018-11-22T20:13:44.230Z,25.03
2018-11-22T20:16:12.654Z,22.60
2018-11-22T20:18:41.839Z,23.87
2018-11-22T20:21:16.518Z,23.23
2018-11-22T20:23:45.395Z,26.67
2018-11-22T20:26:13.922Z,28.57
2018-11-22T20:28:42.279Z,24.03
2018-11-22T20:31:10.419Z,23.67
2018-11-22T20:33:38.838Z,24.80
2018-11-22T20:36:07.338Z,26.10
2018-11-22T20:38:35.679Z,29.20
2018-11-22T20:41:04.463Z,23.73
2018-11-22T20:43:32.819Z,25.30
2018-11-22T20:46:01.267Z,25.87
2018-11-22T20:48:29.607Z,32.17
2018-11-22T20:50:57.924Z,28.30
2018-11-22T20:53:26.175Z,25.60
2018-11-22T20:55:54.719Z,25.73
2018-11-22T20:58:23.178Z,26.57
2018-11-22T21:00:51.384Z,23.20
2018-11-22T21:03:19.799Z,23.17
2018-11-22T21:05:48.001Z,26.37
2018-11-22T21:08:16.383Z,24.90
2018-11-22T21:10:44.603Z,26.23
2018-11-22T21:13:12.923Z,26.10
2018-11-22T21:15:40.997Z,27.90
2018-11-22T21:18:09.164Z,23.30
2018-11-22T21:20:38.807Z,21.77
2018-11-22T21:23:06.891Z,21.63
2018-11-22T21:25:34.935Z,20.37
2018-11-22T21:28:02.995Z,23.17
2018-11-22T21:30:32.519Z,22.03
2018-11-22T21:33:01.176Z,24.10
2018-11-22T21:35:29.335Z,23.20
2018-11-22T21:37:58.307Z,21.10
2018-11-22T21:40:27.123Z,21.70
2018-11-22T21:42:55.198Z,20.27
2018-11-22T21:45:24.287Z,20.70
2018-11-22T21:47:52.348Z,21.97
2018-11-22T21:50:21.778Z,20.10
2018-11-22T21:52:49.848Z,21.40
2018-11-22T21:55:20.911Z,24.90
2018-11-22T21:57:49.676Z,24.80
2018-11-22T22:00:20.609Z,24.93
2018-11-22T22:02:52.617Z,24.43
2018-11-22T22:05:18.091Z,22.93
2018-11-22T22:07:46.139Z,22.77
2018-11-22T22:10:14.201Z,21.93
2018-11-22T22:12:42.512Z,24.07
2018-11-22T22:15:12.224Z,21.90
2018-11-22T22:17:40.996Z,22.37
2018-11-22T22:20:09.972Z,26.67
2018-11-22T22:22:38.209Z,20.60
2018-11-22T22:25:07.269Z,22.93
2018-11-22T22:27:35.316Z,25.07
2018-11-22T22:30:03.368Z,28.17
2018-11-22T22:32:31.432Z,24.57
2018-11-22T22:34:59.481Z,21.87
2018-11-22T22:37:27.544Z,21.97
2018-11-22T22:39:55.586Z,20.67
2018-11-22T22:42:23.628Z,22.47
2018-11-22T22:44:51.701Z,22.37
2018-11-22T22:47:19.820Z,25.77
2018-11-22T22:49:47.848Z,23.97
2018-11-22T22:52:15.910Z,24.03
2018-11-22T22:54:43.963Z,22.87
2018-11-22T22:57:12.001Z,22.47
2018-11-22T22:59:40.021Z,23.03
2018-11-22T23:02:08.053Z,23.83
2018-11-22T23:04:36.089Z,24.07
2018-11-22T23:07:04.121Z,24.93
2018-11-22T23:09:32.152Z,20.53
2018-11-22T23:12:00.213Z,22.47
2018-11-22T23:14:28.213Z,25.67
2018-11-22T23:16:56.227Z,26.87
2018-11-22T23:19:24.489Z,24.90
2018-11-22T23:21:52.669Z,24.67
2018-11-22T23:24:20.725Z,26.73
2018-11-22T23:26:48.769Z,25.37
2018-11-22T23:29:16.817Z,23.57
2018-11-22T23:31:44.934Z,23.33
2018-11-22T23:34:12.956Z,24.40
2018-11-22T23:36:41.021Z,24.23
2018-11-22T23:39:09.549Z,22.40
2018-11-22T23:41:37.625Z,23.13
2018-11-22T23:44:05.822Z,23.00
2018-11-22T23:46:33.842Z,24.50
2018-11-22T23:49:01.894Z,24.57
2018-11-22T23:51:29.917Z,21.23
2018-11-22T23:53:57.966Z,20.93
2018-11-22T23:56:25.993Z,20.90
2018-11-22T23:58:54.057Z,19.00
